createdAt,value
2022-12-14T06:23:49.448Z,95729.31
2022-12-14T06:53:36.302Z,95729.53
2022-12-14T07:02:53.419Z,95718.75
2022-12-14T07:05:20.627Z,95716.03
2022-12-14T07:07:47.075Z,95730.78
2022-12-14T07:10:15.584Z,95714.63
2022-12-14T07:12:42.105Z,95723.72
2022-12-14T07:15:08.740Z,95723.72
2022-12-14T07:17:35.734Z,95718.44
2022-12-14T07:20:02.323Z,95729.16
2022-12-14T07:22:28.804Z,95729.75
2022-12-14T07:24:55.346Z,95735.56
2022-12-14T07:27:21.850Z,95732.19
2022-12-14T07:29:48.313Z,95715.31
2022-12-14T07:32:14.813Z,95710.00
2022-12-14T07:34:41.291Z,95711.53
2022-12-14T07:37:07.761Z,95696.09
2022-12-14T07:39:34.195Z,95707.44
2022-12-14T07:42:00.660Z,95710.59
2022-12-14T07:44:27.089Z,95712.06
2022-12-14T07:46:53.675Z,95711.00
2022-12-14T07:49:20.264Z,95721.06
2022-12-14T07:51:46.971Z,95720.03
2022-12-14T07:54:13.434Z,95718.31
2022-12-14T07:56:40.508Z,95705.78
2022-12-14T07:59:08.449Z,95701.38
2022-12-14T08:01:35.404Z,95700.50
2022-12-14T08:04:11.785Z,95695.44
2022-12-14T08:06:38.257Z,95694.56
2022-12-14T08:09:04.905Z,95686.06
2022-12-14T08:11:31.440Z,95682.44
2022-12-14T08:13:58.573Z,95688.16
2022-12-14T08:16:25.341Z,95669.50
2022-12-14T08:18:55.457Z,95675.22
2022-12-14T08:21:22.271Z,95680.00
2022-12-14T08:23:49.235Z,95677.13
2022-12-14T08:26:15.793Z,95681.03
2022-12-14T08:28:42.260Z,95686.31
2022-12-14T08:31:09.606Z,95693.69
2022-12-14T08:33:36.464Z,95676.66
2022-12-14T08:36:19.672Z,95678.06
2022-12-14T08:38:46.239Z,95672.75
2022-12-14T08:41:15.480Z,95687.59
2022-12-14T08:43:41.978Z,95689.03
2022-12-14T08:46:08.853Z,95691.16
2022-12-14T08:48:35.723Z,95678.47
2022-12-14T08:51:02.843Z,95690.88
2022-12-14T08:53:29.614Z,95683.13
2022-12-14T08:55:56.403Z,95689.66
2022-12-14T08:58:23.052Z,95681.97
2022-12-14T09:00:49.612Z,95683.47
2022-12-14T09:03:17.005Z,95685.72
2022-12-14T09:05:43.491Z,95683.81
2022-12-14T09:08:09.969Z,95687.75
2022-12-14T09:10:36.375Z,95683.38
2022-12-14T09:13:02.836Z,95678.91
2022-12-14T09:15:29.322Z,95686.13
2022-12-14T09:17:55.746Z,95515.19
2022-12-14T09:20:22.193Z,95684.81
2022-12-14T09:22:51.020Z,95681.31
2022-12-14T09:25:17.467Z,95675.16
2022-12-14T09:27:43.956Z,95680.81
2022-12-14T09:30:10.636Z,95675.56
2022-12-14T09:32:37.035Z,95674.50
2022-12-14T09:35:05.666Z,95675.19
2022-12-14T09:37:32.136Z,95681.22
2022-12-14T09:39:58.546Z,95672.81
2022-12-14T09:42:44.754Z,95662.59
2022-12-14T09:45:19.187Z,95667.44
2022-12-14T09:47:49.195Z,95665.56
2022-12-14T09:50:19.239Z,95661.28
2022-12-14T09:52:46.767Z,95656.97
2022-12-14T09:55:20.986Z,95658.44
2022-12-14T09:57:47.449Z,95651.53
2022-12-14T10:00:20.519Z,95651.31
2022-12-14T10:02:50.624Z,95644.25
2022-12-14T10:05:32.783Z,95628.91
2022-12-14T10:08:02.855Z,95637.88
2022-12-14T10:10:32.953Z,95640.31
2022-12-14T10:13:06.139Z,95630.16
2022-12-14T10:15:33.176Z,95629.03
2022-12-14T10:18:03.447Z,95617.16
2022-12-14T10:20:32.691Z,95621.31
2022-12-14T10:22:59.097Z,95611.13
2022-12-14T10:25:26.424Z,95602.44
2022-12-14T10:28:11.727Z,95601.31
2022-12-14T10:30:38.418Z,95601.81
2022-12-14T10:33:14.150Z,95593.84
2022-12-14T10:35:53.350Z,95594.31
2022-12-14T10:38:37.417Z,95593.81
2022-12-14T10:41:06.749Z,95579.91
2022-12-14T10:43:33.142Z,95582.59
2022-12-14T10:46:11.824Z,95570.19
2022-12-14T10:48:48.096Z,95569.34
2022-12-14T10:51:33.438Z,95573.25
2022-12-14T10:53:59.849Z,95569.44
2022-12-14T10:56:27.946Z,95557.91
2022-12-14T10:59:14.286Z,95547.06
2022-12-14T11:01:40.925Z,95537.59
2022-12-14T11:04:09.591Z,95548.19
2022-12-14T11:06:36.028Z,95533.00
2022-12-14T11:09:02.442Z,95534.72
2022-12-14T11:11:29.019Z,95518.38
2022-12-14T11:14:15.925Z,95504.38
2022-12-14T11:16:42.501Z,95493.38
2022-12-14T11:19:16.277Z,95492.53
2022-12-14T11:21:42.831Z,95490.66
2022-12-14T11:24:09.943Z,95489.66
2022-12-14T11:26:40.633Z,95495.28
2022-12-14T11:29:07.476Z,95489.69
2022-12-14T11:31:37.798Z,95478.03
2022-12-14T11:34:05.153Z,95475.69
2022-12-14T11:36:38.675Z,95470.00
2022-12-14T11:39:14.274Z,95461.28
2022-12-14T11:41:41.218Z,95453.50
2022-12-14T11:44:17.019Z,95452.94
2022-12-14T11:46:46.468Z,95453.84
2022-12-14T11:49:39.272Z,95456.00
2022-12-14T11:52:05.679Z,95444.75
2022-12-14T11:54:32.442Z,95435.34
2022-12-14T11:57:03.449Z,95437.66
2022-12-14T11:59:53.969Z,95429.91
2022-12-14T12:02:22.410Z,95426.56
2022-12-14T12:04:51.629Z,95407.78
2022-12-14T12:07:23.789Z,95400.72
2022-12-14T12:09:50.168Z,95388.84
2022-12-14T12:12:17.496Z,95384.69
2022-12-14T12:14:44.141Z,95376.88
2022-12-14T12:17:31.042Z,95371.34
2022-12-14T12:19:57.802Z,95377.81
2022-12-14T12:22:25.555Z,95382.19
2022-12-14T12:25:16.661Z,95392.34
2022-12-14T12:27:40.663Z,95368.09
2022-12-14T12:30:08.526Z,95370.44
2022-12-14T12:32:36.748Z,95363.34
2022-12-14T12:35:18.638Z,95356.84
2022-12-14T12:37:53.130Z,95351.38
2022-12-14T12:40:21.240Z,95341.88
2022-12-14T12:42:47.662Z,95335.06
2022-12-14T12:45:20.209Z,95343.81
2022-12-14T12:47:50.816Z,95328.09
2022-12-14T12:50:18.557Z,95320.47
2022-12-14T12:53:04.482Z,95329.59
2022-12-14T12:55:31.922Z,95343.28
2022-12-14T12:57:58.724Z,95340.63
2022-12-14T13:00:26.562Z,95337.22
2022-12-14T13:02:54.822Z,95329.47
2022-12-14T13:05:45.856Z,95324.81
2022-12-14T13:08:12.368Z,95312.09
2022-12-14T13:10:50.615Z,95304.38
2022-12-14T13:13:31.196Z,95294.84
2022-12-14T13:15:59.346Z,95290.78
2022-12-14T13:21:52.987Z,95276.84
2022-12-14T13:24:21.908Z,95277.78
2022-12-14T13:26:59.026Z,95277.78
2022-12-14T13:29:40.417Z,95266.69
2022-12-14T13:32:29.880Z,95258.19
2022-12-14T13:35:00.250Z,95260.63
2022-12-14T13:37:50.137Z,95255.44
2022-12-14T13:40:34.981Z,95261.31
2022-12-14T13:43:05.988Z,95240.19
2022-12-14T13:45:35.008Z,95216.34
2022-12-14T13:48:01.520Z,95215.00
2022-12-14T13:50:36.573Z,95206.34
2022-12-14T13:53:04.789Z,95194.72
2022-12-14T13:55:32.549Z,95204.78
2022-12-14T13:58:06.257Z,95212.94
2022-12-14T14:00:44.946Z,95210.50
2022-12-14T14:03:30.199Z,95186.13
2022-12-14T14:05:57.230Z,95163.19
2022-12-14T14:08:31.287Z,95157.88
2022-12-14T14:11:38.707Z,95157.34
2022-12-14T14:14:12.175Z,95170.63
2022-12-14T14:16:45.193Z,95151.44
2022-12-14T14:19:11.680Z,95152.13
2022-12-14T14:22:05.994Z,95139.13
2022-12-14T14:24:28.875Z,95112.09
2022-12-14T14:26:58.987Z,95145.69
2022-12-14T14:29:29.116Z,95129.44
2022-12-14T14:32:14.365Z,95134.50
2022-12-14T14:34:43.922Z,95134.28
2022-12-14T14:37:22.852Z,95135.31
2022-12-14T14:40:23.857Z,95130.84
2022-12-14T14:43:05.374Z,95131.66
2022-12-14T14:45:35.005Z,95133.03
2022-12-14T14:48:02.524Z,95128.38
2022-12-14T14:50:34.466Z,95125.84
2022-12-14T14:53:00.956Z,95130.84
2022-12-14T14:55:54.966Z,95136.72
2022-12-14T14:58:24.701Z,95129.00
2022-12-14T15:01:07.415Z,95115.59
2022-12-14T15:03:45.191Z,95106.59
2022-12-14T15:06:16.192Z,95112.97
2022-12-14T15:09:09.060Z,95115.19
2022-12-14T15:11:48.759Z,95123.47
2022-12-14T15:14:35.766Z,95120.94
2022-12-14T15:17:15.168Z,95099.81
2022-12-14T15:19:51.528Z,95115.25
2022-12-14T15:22:19.774Z,95122.44
2022-12-14T15:24:47.399Z,95119.41
2022-12-14T15:27:16.866Z,95120.00
2022-12-14T15:29:43.906Z,95122.97
2022-12-14T15:32:12.244Z,95118.22
2022-12-14T15:34:39.960Z,95044.69
2022-12-14T15:37:06.501Z,95126.09
2022-12-14T15:39:43.583Z,95131.84
2022-12-14T15:42:11.512Z,95132.56
2022-12-14T15:44:38.130Z,95122.28
2022-12-14T15:47:04.855Z,95114.91
2022-12-14T15:49:31.395Z,95112.03
2022-12-14T15:51:57.833Z,95121.06
2022-12-14T15:54:25.030Z,95116.19
2022-12-14T15:56:53.060Z,95114.47
2022-12-14T15:59:23.623Z,95125.53
2022-12-14T16:01:56.031Z,95117.34
2022-12-14T16:04:25.799Z,95114.09
2022-12-14T16:06:53.559Z,95108.44
2022-12-14T16:09:26.657Z,95122.16
2022-12-14T16:11:54.783Z,95129.00
2022-12-14T16:14:21.156Z,95129.78
2022-12-14T16:16:47.777Z,95136.81
2022-12-14T16:19:27.089Z,95142.94
2022-12-14T16:22:11.274Z,95152.28
2022-12-14T16:24:37.895Z,95156.44
2022-12-14T16:27:04.649Z,95155.75
2022-12-14T16:29:31.751Z,95149.88
2022-12-14T16:32:05.483Z,95143.63
2022-12-14T16:34:33.352Z,95136.72
2022-12-14T16:37:32.030Z,95129.00
2022-12-14T16:39:47.427Z,95127.50
2022-12-14T16:42:18.148Z,95116.28
2022-12-14T16:44:44.640Z,95109.72
2022-12-14T16:47:14.689Z,95109.25
2022-12-14T16:49:41.808Z,95110.06
2022-12-14T16:52:15.571Z,95104.19
2022-12-14T16:54:42.113Z,95111.22
2022-12-14T16:57:18.487Z,95120.78
2022-12-14T16:59:45.633Z,95116.63
2022-12-14T17:02:23.851Z,95108.19
2022-12-14T17:04:50.400Z,95114.31
2022-12-14T17:07:16.822Z,95104.16
2022-12-14T17:09:43.254Z,95094.56
2022-12-14T17:12:11.434Z,95090.28
2022-12-14T17:14:37.875Z,95101.38
2022-12-14T17:17:04.386Z,95086.38
2022-12-14T17:19:34.294Z,95090.66
2022-12-14T17:22:00.767Z,95086.13
2022-12-14T17:24:27.707Z,95075.06
2022-12-14T17:26:54.333Z,95077.25
2022-12-14T17:29:21.988Z,95062.47
2022-12-14T17:31:49.994Z,95066.06
2022-12-14T17:34:17.486Z,95073.91
2022-12-14T17:36:44.174Z,95077.47
2022-12-14T17:39:10.753Z,95090.06
2022-12-14T17:41:37.878Z,95081.50
2022-12-14T17:44:04.417Z,95079.44
2022-12-14T17:46:31.121Z,95083.94
2022-12-14T17:49:01.517Z,95069.88
2022-12-14T17:51:31.678Z,95064.53
2022-12-14T17:53:58.245Z,95056.13
2022-12-14T17:56:24.734Z,95047.56
2022-12-14T17:58:51.318Z,95039.03
2022-12-14T18:01:18.684Z,95030.50
2022-12-14T18:03:46.015Z,95028.53
2022-12-14T18:06:13.319Z,95027.59
2022-12-14T18:08:39.789Z,95021.72
2022-12-14T18:11:10.363Z,95020.09
2022-12-14T18:13:40.395Z,95013.88
2022-12-14T18:16:06.986Z,95009.72
2022-12-14T18:18:33.444Z,95008.00
2022-12-14T18:21:01.447Z,95003.38
2022-12-14T18:23:28.617Z,95009.84
2022-12-14T18:25:56.125Z,95004.28
2022-12-14T18:28:22.682Z,95002.13
2022-12-14T18:31:07.384Z,94996.91
2022-12-14T18:33:35.314Z,94993.66
2022-12-14T18:36:01.860Z,94995.41
2022-12-14T18:38:28.298Z,94996.56
2022-12-14T18:40:55.039Z,94996.78
2022-12-14T18:43:25.440Z,95000.13
2022-12-14T18:45:52.561Z,95005.91
2022-12-14T18:48:19.317Z,95014.34
2022-12-14T18:50:46.237Z,95018.50
2022-12-14T18:53:17.303Z,95016.91
2022-12-14T18:55:44.005Z,95026.81
2022-12-14T18:58:14.936Z,95021.72
2022-12-14T19:00:41.363Z,95019.19
2022-12-14T19:03:08.269Z,95020.81
2022-12-14T19:05:34.931Z,95024.06
2022-12-14T19:08:01.449Z,95020.72
2022-12-14T19:10:28.948Z,95010.41
2022-12-14T19:12:55.655Z,95012.72
2022-12-14T19:15:22.965Z,95012.63
2022-12-14T19:17:49.582Z,95019.88
2022-12-14T19:20:16.246Z,95023.34
2022-12-14T19:22:42.805Z,95034.56
2022-12-14T19:25:09.290Z,95029.47
2022-12-14T19:28:11.590Z,95033.03
2022-12-14T19:30:23.290Z,95045.88
2022-12-14T19:32:50.537Z,95035.84
2022-12-14T19:35:17.246Z,95032.47
2022-12-14T19:37:43.706Z,95036.38
2022-12-14T19:40:13.714Z,95046.22
2022-12-14T19:42:40.687Z,95036.50
2022-12-14T19:45:07.997Z,95035.69
2022-12-14T19:47:34.750Z,95026.81
2022-12-14T19:50:01.940Z,95027.63
2022-12-14T19:52:28.534Z,95037.44
2022-12-14T19:54:54.926Z,95033.38
2022-12-14T19:57:21.692Z,95021.25
2022-12-14T19:59:48.125Z,95018.03
2022-12-14T20:02:14.865Z,95014.69
2022-12-14T20:04:41.558Z,95017.44
2022-12-14T20:07:08.127Z,95028.19
2022-12-14T20:09:34.828Z,95015.69
2022-12-14T20:12:01.538Z,95023.91
2022-12-14T20:14:28.067Z,95015.81
2022-12-14T20:16:54.656Z,95014.69
2022-12-14T20:19:21.726Z,95023.19
2022-12-14T20:21:48.323Z,95034.44
2022-12-14T20:24:14.859Z,95023.56
2022-12-14T20:26:41.309Z,95027.81
2022-12-14T20:29:08.015Z,95018.72
2022-12-14T20:31:34.869Z,95030.16
2022-12-14T20:34:01.825Z,95028.44
2022-12-14T20:36:28.953Z,95035.50
2022-12-14T20:38:56.191Z,95037.44
2022-12-14T20:41:22.867Z,95044.94
2022-12-14T20:43:49.353Z,95051.53
2022-12-14T20:46:32.119Z,95042.53
2022-12-14T20:49:01.493Z,95046.81
2022-12-14T20:51:28.564Z,95051.19
2022-12-14T20:53:55.176Z,95050.75
2022-12-14T20:56:21.647Z,95036.75
2022-12-14T20:58:48.386Z,95041.13
2022-12-14T21:01:15.051Z,95044.25
2022-12-14T21:03:41.868Z,95042.78
2022-12-14T21:06:08.702Z,95038.59
2022-12-14T21:08:53.903Z,95044.00
2022-12-14T21:11:39.008Z,95049.91
2022-12-14T21:14:05.600Z,95062.50
2022-12-14T21:16:32.189Z,95062.84
2022-12-14T21:18:58.751Z,95070.13
2022-12-14T21:21:25.465Z,95077.75
2022-12-14T21:23:51.886Z,95072.56
2022-12-14T21:26:18.484Z,95080.66
2022-12-14T21:28:44.921Z,95079.13
2022-12-14T21:31:16.062Z,95075.78
2022-12-14T21:33:49.453Z,95066.66
2022-12-14T21:36:16.330Z,95067.94
2022-12-14T21:38:42.915Z,95069.81
2022-12-14T21:41:29.177Z,95072.22
2022-12-14T21:43:55.596Z,95076.59
2022-12-14T21:46:24.520Z,95079.72
2022-12-14T21:48:54.342Z,95083.88
2022-12-14T21:51:20.975Z,95071.28
2022-12-14T21:54:00.820Z,95074.88
2022-12-14T21:56:46.504Z,95071.41
2022-12-14T21:59:13.093Z,95069.88
2022-12-14T22:01:39.708Z,95077.78
2022-12-14T22:04:06.319Z,95082.47
2022-12-14T22:06:33.050Z,95079.84
2022-12-14T22:09:02.582Z,95071.97
2022-12-14T22:11:29.245Z,95068.50
2022-12-14T22:13:55.712Z,95070.22
2022-12-14T22:16:22.263Z,95065.84
2022-12-14T22:18:53.889Z,95068.84
2022-12-14T22:21:20.350Z,95079.84
2022-12-14T22:23:46.891Z,95076.56
2022-12-14T22:26:13.317Z,95082.38
2022-12-14T22:28:39.893Z,95071.25
2022-12-14T22:31:06.340Z,95065.38
2022-12-14T22:33:33.973Z,95051.94
2022-12-14T22:36:00.494Z,95043.50
2022-12-14T22:38:26.956Z,95042.81
2022-12-14T22:40:53.382Z,95026.63
2022-12-14T22:43:24.331Z,95020.94
2022-12-14T22:45:54.000Z,95084.31
2022-12-14T22:48:20.434Z,95066.50
2022-12-14T22:50:47.002Z,95094.63
2022-12-14T22:53:14.045Z,95083.50
2022-12-14T22:55:40.926Z,95088.25
2022-12-14T22:58:07.939Z,95098.16
2022-12-14T23:00:49.825Z,95097.72
2022-12-14T23:03:16.469Z,95098.19
2022-12-14T23:05:43.155Z,95088.13
2022-12-14T23:08:09.599Z,95093.56
2022-12-14T23:10:54.688Z,95096.44
2022-12-14T23:13:39.931Z,95092.28
2022-12-14T23:16:25.339Z,95096.44
2022-12-14T23:19:10.696Z,95094.22
2022-12-14T23:21:56.229Z,95091.13
2022-12-14T23:24:41.309Z,95105.31
2022-12-14T23:27:26.526Z,95110.19
2022-12-14T23:30:11.802Z,95115.03
2022-12-14T23:32:57.009Z,95126.00
2022-12-14T23:35:42.190Z,95126.81
2022-12-14T23:38:27.560Z,95135.97
2022-12-14T23:41:19.000Z,95136.53
2022-12-14T23:44:04.027Z,95135.97
2022-12-14T23:46:49.358Z,95141.75
2022-12-14T23:49:34.392Z,95148.81
2022-12-14T23:52:19.517Z,95143.81
2022-12-14T23:55:04.877Z,95151.25
2022-12-14T23:57:50.049Z,95152.03
